sensor_id;sensor_type;location;lat;lon;timestamp;pressure;altitude;pressure_sealevel;temperature;humidity
51067;BME280;37112;45.892;-123.962;2023-02-18T00:01:33;102343.08;;;8.32;91.01
51067;BME280;37112;45.892;-123.962;2023-02-18T00:03:46;102340.26;;;8.32;90.91
51067;BME280;37112;45.892;-123.962;2023-02-18T00:06:00;102340.78;;;8.32;90.89
51067;BME280;37112;45.892;-123.962;2023-02-18T00:08:14;102338.99;;;8.33;91.16
51067;BME280;37112;45.892;-123.962;2023-02-18T00:10:28;102341.31;;;8.33;91.16
51067;BME280;37112;45.892;-123.962;2023-02-18T00:12:42;102343.75;;;8.34;91.22
51067;BME280;37112;45.892;-123.962;2023-02-18T00:14:56;102347.29;;;8.35;90.99
51067;BME280;37112;45.892;-123.962;2023-02-18T00:17:10;102346.76;;;8.35;90.80
51067;BME280;37112;45.892;-123.962;2023-02-18T00:19:24;102353.92;;;8.37;91.05
51067;BME280;37112;45.892;-123.962;2023-02-18T00:21:41;102363.60;;;8.39;91.02
51067;BME280;37112;45.892;-123.962;2023-02-18T00:23:55;102369.06;;;8.41;90.96
51067;BME280;37112;45.892;-123.962;2023-02-18T00:26:09;102376.25;;;8.43;90.91
51067;BME280;37112;45.892;-123.962;2023-02-18T00:28:24;102379.42;;;8.43;90.58
51067;BME280;37112;45.892;-123.962;2023-02-18T00:30:41;102378.59;;;8.42;90.39
51067;BME280;37112;45.892;-123.962;2023-02-18T00:32:55;102378.18;;;8.43;90.55
51067;BME280;37112;45.892;-123.962;2023-02-18T00:35:10;102373.64;;;8.46;90.79
51067;BME280;37112;45.892;-123.962;2023-02-18T00:37:26;102374.11;;;8.49;90.86
51067;BME280;37112;45.892;-123.962;2023-02-18T00:39:39;102386.94;;;8.51;90.74
51067;BME280;37112;45.892;-123.962;2023-02-18T00:41:52;102399.11;;;8.53;90.69
51067;BME280;37112;45.892;-123.962;2023-02-18T00:44:08;102405.05;;;8.54;90.73
51067;BME280;37112;45.892;-123.962;2023-02-18T00:46:22;102404.83;;;8.56;90.66
51067;BME280;37112;45.892;-123.962;2023-02-18T00:48:36;102406.23;;;8.57;90.64
51067;BME280;37112;45.892;-123.962;2023-02-18T00:50:50;102412.88;;;8.59;90.62
51067;BME280;37112;45.892;-123.962;2023-02-18T00:53:04;102412.26;;;8.62;90.66
51067;BME280;37112;45.892;-123.962;2023-02-18T00:55:18;102413.90;;;8.66;90.92
51067;BME280;37112;45.892;-123.962;2023-02-18T00:57:31;102413.02;;;8.72;91.07
51067;BME280;37112;45.892;-123.962;2023-02-18T00:59:46;102407.56;;;8.76;91.02
51067;BME280;37112;45.892;-123.962;2023-02-18T01:01:59;102400.89;;;8.80;91.12
51067;BME280;37112;45.892;-123.962;2023-02-18T01:04:12;102395.70;;;8.81;90.97
51067;BME280;37112;45.892;-123.962;2023-02-18T01:06:25;102389.66;;;8.82;90.94
51067;BME280;37112;45.892;-123.962;2023-02-18T01:08:39;102386.43;;;8.83;90.82
51067;BME280;37112;45.892;-123.962;2023-02-18T01:10:56;102380.52;;;8.85;91.00
51067;BME280;37112;45.892;-123.962;2023-02-18T01:13:11;102371.95;;;8.87;90.95
51067;BME280;37112;45.892;-123.962;2023-02-18T01:15:26;102363.88;;;8.84;90.46
51067;BME280;37112;45.892;-123.962;2023-02-18T01:17:40;102359.57;;;8.81;90.12
51067;BME280;37112;45.892;-123.962;2023-02-18T01:19:54;102360.52;;;8.79;90.09
51067;BME280;37112;45.892;-123.962;2023-02-18T01:22:08;102362.21;;;8.76;89.86
51067;BME280;37112;45.892;-123.962;2023-02-18T01:24:23;102364.61;;;8.74;89.82
51067;BME280;37112;45.892;-123.962;2023-02-18T01:26:36;102354.07;;;8.71;89.79
51067;BME280;37112;45.892;-123.962;2023-02-18T01:28:50;102351.39;;;8.66;89.65
51067;BME280;37112;45.892;-123.962;2023-02-18T01:31:06;102352.89;;;8.64;89.38
51067;BME280;37112;45.892;-123.962;2023-02-18T01:33:20;102347.06;;;8.58;88.88
51067;BME280;37112;45.892;-123.962;2023-02-18T01:35:36;102343.54;;;8.52;88.56
51067;BME280;37112;45.892;-123.962;2023-02-18T01:37:49;102340.05;;;8.45;88.41
51067;BME280;37112;45.892;-123.962;2023-02-18T01:40:03;102342.17;;;8.40;88.42
51067;BME280;37112;45.892;-123.962;2023-02-18T01:42:21;102344.63;;;8.35;88.23
51067;BME280;37112;45.892;-123.962;2023-02-18T01:44:36;102343.86;;;8.30;88.21
51067;BME280;37112;45.892;-123.962;2023-02-18T01:46:50;102343.09;;;8.27;88.16
51067;BME280;37112;45.892;-123.962;2023-02-18T01:49:04;102342.38;;;8.21;87.89
51067;BME280;37112;45.892;-123.962;2023-02-18T01:51:19;102346.52;;;8.13;87.47
51067;BME280;37112;45.892;-123.962;2023-02-18T01:53:38;102348.36;;;8.05;87.53
51067;BME280;37112;45.892;-123.962;2023-02-18T01:55:52;102356.00;;;7.98;87.28
51067;BME280;37112;45.892;-123.962;2023-02-18T01:58:07;102358.50;;;7.92;87.15
51067;BME280;37112;45.892;-123.962;2023-02-18T02:00:21;102350.70;;;7.87;87.07
51067;BME280;37112;45.892;-123.962;2023-02-18T02:02:38;102346.64;;;7.81;87.13
51067;BME280;37112;45.892;-123.962;2023-02-18T02:04:52;102347.77;;;7.72;86.89
51067;BME280;37112;45.892;-123.962;2023-02-18T02:07:06;102357.94;;;7.64;86.59
51067;BME280;37112;45.892;-123.962;2023-02-18T02:09:20;102366.77;;;7.58;86.62
51067;BME280;37112;45.892;-123.962;2023-02-18T02:11:54;102373.25;;;7.53;86.81
51067;BME280;37112;45.892;-123.962;2023-02-18T02:14:24;102376.38;;;7.49;86.58
51067;BME280;37112;45.892;-123.962;2023-02-18T02:16:47;102373.00;;;7.38;85.99
51067;BME280;37112;45.892;-123.962;2023-02-18T02:19:14;102383.44;;;7.30;86.28
51067;BME280;37112;45.892;-123.962;2023-02-18T02:27:24;102374.13;;;7.09;86.29
51067;BME280;37112;45.892;-123.962;2023-02-18T02:32:44;102374.00;;;6.93;85.84
51067;BME280;37112;45.892;-123.962;2023-02-18T02:35:06;102367.04;;;6.83;85.66
51067;BME280;37112;45.892;-123.962;2023-02-18T02:37:26;102352.56;;;6.76;85.77
51067;BME280;37112;45.892;-123.962;2023-02-18T02:39:50;102345.52;;;6.69;85.85
51067;BME280;37112;45.892;-123.962;2023-02-18T02:42:12;102345.87;;;6.61;86.02
51067;BME280;37112;45.892;-123.962;2023-02-18T02:44:33;102345.16;;;6.54;85.93
51067;BME280;37112;45.892;-123.962;2023-02-18T02:46:54;102339.73;;;6.46;86.02
51067;BME280;37112;45.892;-123.962;2023-02-18T02:49:18;102335.70;;;6.37;86.07
51067;BME280;37112;45.892;-123.962;2023-02-18T02:51:35;102339.77;;;6.29;86.05
51067;BME280;37112;45.892;-123.962;2023-02-18T02:53:51;102342.59;;;6.22;86.10
51067;BME280;37112;45.892;-123.962;2023-02-18T02:56:04;102347.68;;;6.15;86.24
51067;BME280;37112;45.892;-123.962;2023-02-18T02:58:19;102344.13;;;6.09;86.34
51067;BME280;37112;45.892;-123.962;2023-02-18T03:00:40;102333.89;;;6.02;86.22
51067;BME280;37112;45.892;-123.962;2023-02-18T03:03:08;102330.16;;;5.95;86.18
51067;BME280;37112;45.892;-123.962;2023-02-18T03:05:34;102344.17;;;5.90;86.44
51067;BME280;37112;45.892;-123.962;2023-02-18T03:08:00;102354.12;;;5.86;86.60
51067;BME280;37112;45.892;-123.962;2023-02-18T03:13:13;102365.83;;;5.74;86.69
51067;BME280;37112;45.892;-123.962;2023-02-18T03:15:38;102370.88;;;5.70;86.42
51067;BME280;37112;45.892;-123.962;2023-02-18T03:17:59;102369.71;;;5.66;86.73
51067;BME280;37112;45.892;-123.962;2023-02-18T03:20:19;102365.56;;;5.62;86.75
51067;BME280;37112;45.892;-123.962;2023-02-18T03:22:38;102366.50;;;5.59;86.77
51067;BME280;37112;45.892;-123.962;2023-02-18T03:24:53;102373.09;;;5.56;86.89
51067;BME280;37112;45.892;-123.962;2023-02-18T03:27:13;102372.45;;;5.52;86.62
51067;BME280;37112;45.892;-123.962;2023-02-18T03:29:28;102365.48;;;5.49;86.90
51067;BME280;37112;45.892;-123.962;2023-02-18T03:31:45;102358.70;;;5.44;86.76
51067;BME280;37112;45.892;-123.962;2023-02-18T03:34:02;102361.09;;;5.39;86.68
51067;BME280;37112;45.892;-123.962;2023-02-18T03:36:19;102356.98;;;5.33;86.41
51067;BME280;37112;45.892;-123.962;2023-02-18T03:38:37;102352.70;;;5.27;86.47
51067;BME280;37112;45.892;-123.962;2023-02-18T03:40:54;102352.25;;;5.23;86.70
51067;BME280;37112;45.892;-123.962;2023-02-18T03:43:07;102350.04;;;5.18;86.58
51067;BME280;37112;45.892;-123.962;2023-02-18T03:45:21;102342.57;;;5.14;86.67
51067;BME280;37112;45.892;-123.962;2023-02-18T03:47:34;102350.42;;;5.08;86.72
51067;BME280;37112;45.892;-123.962;2023-02-18T03:49:48;102359.62;;;5.05;86.79
51067;BME280;37112;45.892;-123.962;2023-02-18T03:52:01;102360.53;;;5.03;86.91
51067;BME280;37112;45.892;-123.962;2023-02-18T03:54:16;102360.42;;;5.00;86.82
51067;BME280;37112;45.892;-123.962;2023-02-18T03:56:29;102356.94;;;4.98;87.03
51067;BME280;37112;45.892;-123.962;2023-02-18T03:58:43;102347.34;;;4.94;86.94
51067;BME280;37112;45.892;-123.962;2023-02-18T04:00:56;102340.01;;;4.90;86.90
51067;BME280;37112;45.892;-123.962;2023-02-18T04:03:09;102337.27;;;4.86;86.95
51067;BME280;37112;45.892;-123.962;2023-02-18T04:05:24;102336.83;;;4.81;86.94
51067;BME280;37112;45.892;-123.962;2023-02-18T04:07:37;102341.29;;;4.78;87.01
51067;BME280;37112;45.892;-123.962;2023-02-18T04:09:50;102355.05;;;4.75;87.17
51067;BME280;37112;45.892;-123.962;2023-02-18T04:12:04;102359.67;;;4.72;87.11
51067;BME280;37112;45.892;-123.962;2023-02-18T04:14:17;102369.40;;;4.69;87.24
51067;BME280;37112;45.892;-123.962;2023-02-18T04:16:30;102385.29;;;4.66;87.22
51067;BME280;37112;45.892;-123.962;2023-02-18T04:18:44;102397.30;;;4.64;87.22
51067;BME280;37112;45.892;-123.962;2023-02-18T04:21:02;102397.69;;;4.61;87.19
51067;BME280;37112;45.892;-123.962;2023-02-18T04:23:16;102400.36;;;4.59;87.28
51067;BME280;37112;45.892;-123.962;2023-02-18T04:25:30;102400.74;;;4.57;87.28
51067;BME280;37112;45.892;-123.962;2023-02-18T04:27:45;102401.50;;;4.54;87.13
51067;BME280;37112;45.892;-123.962;2023-02-18T04:29:59;102404.01;;;4.52;87.34
51067;BME280;37112;45.892;-123.962;2023-02-18T04:32:12;102408.42;;;4.49;87.31
51067;BME280;37112;45.892;-123.962;2023-02-18T04:34:26;102409.39;;;4.44;87.18
51067;BME280;37112;45.892;-123.962;2023-02-18T04:36:39;102406.45;;;4.41;87.26
51067;BME280;37112;45.892;-123.962;2023-02-18T04:38:56;102392.27;;;4.36;87.33
51067;BME280;37112;45.892;-123.962;2023-02-18T04:41:09;102387.77;;;4.32;87.59
51067;BME280;37112;45.892;-123.962;2023-02-18T04:43:22;102390.45;;;4.29;87.71
51067;BME280;37112;45.892;-123.962;2023-02-18T04:45:36;102385.05;;;4.25;87.91
51067;BME280;37112;45.892;-123.962;2023-02-18T04:47:50;102381.08;;;4.21;87.94
51067;BME280;37112;45.892;-123.962;2023-02-18T04:50:04;102380.73;;;4.20;88.01
51067;BME280;37112;45.892;-123.962;2023-02-18T04:52:18;102387.61;;;4.18;88.12
51067;BME280;37112;45.892;-123.962;2023-02-18T04:54:31;102385.89;;;4.15;88.10
51067;BME280;37112;45.892;-123.962;2023-02-18T04:56:45;102386.80;;;4.14;88.40
51067;BME280;37112;45.892;-123.962;2023-02-18T04:58:58;102387.86;;;4.14;88.42
51067;BME280;37112;45.892;-123.962;2023-02-18T05:01:14;102391.03;;;4.13;88.54
51067;BME280;37112;45.892;-123.962;2023-02-18T05:03:27;102398.24;;;4.13;88.50
51067;BME280;37112;45.892;-123.962;2023-02-18T05:05:41;102400.00;;;4.13;88.69
51067;BME280;37112;45.892;-123.962;2023-02-18T05:07:55;102401.75;;;4.13;88.74
51067;BME280;37112;45.892;-123.962;2023-02-18T05:10:10;102397.89;;;4.12;88.68
51067;BME280;37112;45.892;-123.962;2023-02-18T05:12:27;102392.11;;;4.10;88.79
51067;BME280;37112;45.892;-123.962;2023-02-18T05:14:40;102388.29;;;4.08;88.68
51067;BME280;37112;45.892;-123.962;2023-02-18T05:16:54;102382.52;;;4.06;88.58
51067;BME280;37112;45.892;-123.962;2023-02-18T05:19:07;102380.42;;;4.04;88.63
51067;BME280;37112;45.892;-123.962;2023-02-18T05:21:21;102370.42;;;4.02;88.59
51067;BME280;37112;45.892;-123.962;2023-02-18T05:23:34;102366.63;;;3.99;88.71
51067;BME280;37112;45.892;-123.962;2023-02-18T05:25:48;102366.83;;;3.97;88.77
51067;BME280;37112;45.892;-123.962;2023-02-18T05:28:01;102358.40;;;3.95;88.87
51067;BME280;37112;45.892;-123.962;2023-02-18T05:30:15;102351.20;;;3.94;88.95
51067;BME280;37112;45.892;-123.962;2023-02-18T05:32:29;102349.98;;;3.94;89.17
51067;BME280;37112;45.892;-123.962;2023-02-18T05:34:43;102352.97;;;3.94;89.17
51067;BME280;37112;45.892;-123.962;2023-02-18T05:36:57;102355.77;;;3.95;89.35
51067;BME280;37112;45.892;-123.962;2023-02-18T05:39:10;102353.46;;;3.96;89.45
51067;BME280;37112;45.892;-123.962;2023-02-18T05:41:23;102351.71;;;3.97;89.43
51067;BME280;37112;45.892;-123.962;2023-02-18T05:43:37;102349.22;;;3.99;89.47
51067;BME280;37112;45.892;-123.962;2023-02-18T05:46:04;102348.87;;;3.99;89.58
51067;BME280;37112;45.892;-123.962;2023-02-18T05:48:18;102349.90;;;4.00;89.53
51067;BME280;37112;45.892;-123.962;2023-02-18T05:50:32;102361.66;;;4.01;89.65
51067;BME280;37112;45.892;-123.962;2023-02-18T05:52:46;102372.02;;;4.02;89.71
51067;BME280;37112;45.892;-123.962;2023-02-18T05:54:59;102378.51;;;4.03;89.73
51067;BME280;37112;45.892;-123.962;2023-02-18T05:57:14;102379.71;;;4.04;89.73
51067;BME280;37112;45.892;-123.962;2023-02-18T05:59:27;102376.03;;;4.05;89.77
51067;BME280;37112;45.892;-123.962;2023-02-18T06:01:44;102376.02;;;4.06;89.77
51067;BME280;37112;45.892;-123.962;2023-02-18T06:03:58;102383.55;;;4.07;89.66
51067;BME280;37112;45.892;-123.962;2023-02-18T06:06:12;102392.15;;;4.08;89.78
51067;BME280;37112;45.892;-123.962;2023-02-18T06:08:25;102393.88;;;4.10;89.90
51067;BME280;37112;45.892;-123.962;2023-02-18T06:10:42;102393.15;;;4.11;90.02
51067;BME280;37112;45.892;-123.962;2023-02-18T06:12:56;102398.24;;;4.13;90.07
51067;BME280;37112;45.892;-123.962;2023-02-18T06:15:12;102397.17;;;4.14;90.08
51067;BME280;37112;45.892;-123.962;2023-02-18T06:17:25;102394.34;;;4.15;89.99
51067;BME280;37112;45.892;-123.962;2023-02-18T06:19:39;102398.55;;;4.15;89.80
51067;BME280;37112;45.892;-123.962;2023-02-18T06:21:53;102401.88;;;4.16;89.88
51067;BME280;37112;45.892;-123.962;2023-02-18T06:24:07;102406.95;;;4.17;90.03
51067;BME280;37112;45.892;-123.962;2023-02-18T06:26:20;102402.02;;;4.18;90.00
51067;BME280;37112;45.892;-123.962;2023-02-18T06:28:34;102391.63;;;4.19;90.15
51067;BME280;37112;45.892;-123.962;2023-02-18T06:30:48;102384.77;;;4.19;90.17
51067;BME280;37112;45.892;-123.962;2023-02-18T06:33:03;102381.77;;;4.21;90.24
51067;BME280;37112;45.892;-123.962;2023-02-18T06:35:18;102374.57;;;4.22;90.24
51067;BME280;37112;45.892;-123.962;2023-02-18T06:37:31;102367.88;;;4.23;90.17
51067;BME280;37112;45.892;-123.962;2023-02-18T06:39:45;102362.06;;;4.22;90.37
51067;BME280;37112;45.892;-123.962;2023-02-18T06:41:59;102362.76;;;4.23;90.54
51067;BME280;37112;45.892;-123.962;2023-02-18T06:44:13;102369.42;;;4.24;90.70
51067;BME280;37112;45.892;-123.962;2023-02-18T06:46:27;102372.89;;;4.27;90.77
51067;BME280;37112;45.892;-123.962;2023-02-18T06:48:41;102361.09;;;4.28;90.88
51067;BME280;37112;45.892;-123.962;2023-02-18T06:50:54;102353.35;;;4.29;90.95
51067;BME280;37112;45.892;-123.962;2023-02-18T06:53:08;102344.52;;;4.31;91.21
51067;BME280;37112;45.892;-123.962;2023-02-18T06:55:22;102340.77;;;4.34;91.25
51067;BME280;37112;45.892;-123.962;2023-02-18T06:57:35;102338.13;;;4.35;91.26
51067;BME280;37112;45.892;-123.962;2023-02-18T06:59:50;102343.38;;;4.37;91.36
51067;BME280;37112;45.892;-123.962;2023-02-18T07:02:03;102337.18;;;4.39;91.23
51067;BME280;37112;45.892;-123.962;2023-02-18T07:04:16;102327.30;;;4.40;91.31
51067;BME280;37112;45.892;-123.962;2023-02-18T07:06:29;102327.29;;;4.41;91.28
51067;BME280;37112;45.892;-123.962;2023-02-18T07:08:43;102330.77;;;4.43;91.42
51067;BME280;37112;45.892;-123.962;2023-02-18T07:10:56;102329.00;;;4.45;91.50
51067;BME280;37112;45.892;-123.962;2023-02-18T07:13:09;102325.98;;;4.47;91.50
51067;BME280;37112;45.892;-123.962;2023-02-18T07:15:24;102318.02;;;4.48;91.42
51067;BME280;37112;45.892;-123.962;2023-02-18T07:17:37;102312.59;;;4.48;91.35
51067;BME280;37112;45.892;-123.962;2023-02-18T07:19:51;102321.02;;;4.48;91.32
51067;BME280;37112;45.892;-123.962;2023-02-18T07:22:05;102319.77;;;4.50;91.48
51067;BME280;37112;45.892;-123.962;2023-02-18T07:24:18;102320.27;;;4.51;91.66
51067;BME280;37112;45.892;-123.962;2023-02-18T07:26:30;102326.07;;;4.51;91.64
51067;BME280;37112;45.892;-123.962;2023-02-18T07:28:44;102334.70;;;4.52;91.58
51067;BME280;37112;45.892;-123.962;2023-02-18T07:30:58;102336.95;;;4.54;91.50
51067;BME280;37112;45.892;-123.962;2023-02-18T07:33:11;102337.63;;;4.55;91.45
51067;BME280;37112;45.892;-123.962;2023-02-18T07:35:25;102337.45;;;4.55;91.45
51067;BME280;37112;45.892;-123.962;2023-02-18T07:37:38;102337.96;;;4.56;91.60
51067;BME280;37112;45.892;-123.962;2023-02-18T07:39:51;102339.87;;;4.57;91.44
51067;BME280;37112;45.892;-123.962;2023-02-18T07:42:05;102343.91;;;4.57;91.50
51067;BME280;37112;45.892;-123.962;2023-02-18T07:44:19;102354.27;;;4.60;91.59
51067;BME280;37112;45.892;-123.962;2023-02-18T07:46:33;102357.92;;;4.62;91.68
51067;BME280;37112;45.892;-123.962;2023-02-18T07:48:46;102356.81;;;4.64;91.75
51067;BME280;37112;45.892;-123.962;2023-02-18T07:50:59;102356.23;;;4.67;91.97
51067;BME280;37112;45.892;-123.962;2023-02-18T07:53:14;102362.37;;;4.69;91.82
51067;BME280;37112;45.892;-123.962;2023-02-18T07:55:27;102363.93;;;4.71;91.68
51067;BME280;37112;45.892;-123.962;2023-02-18T07:57:58;102368.84;;;4.71;91.72
51067;BME280;37112;45.892;-123.962;2023-02-18T08:02:30;102369.69;;;4.73;91.61
51067;BME280;37112;45.892;-123.962;2023-02-18T08:04:43;102369.48;;;4.74;91.59
51067;BME280;37112;45.892;-123.962;2023-02-18T08:06:56;102369.14;;;4.75;91.82
51067;BME280;37112;45.892;-123.962;2023-02-18T08:09:09;102360.16;;;4.75;91.67
51067;BME280;37112;45.892;-123.962;2023-02-18T08:11:22;102355.41;;;4.76;91.74
51067;BME280;37112;45.892;-123.962;2023-02-18T08:13:35;102359.79;;;4.77;91.61
51067;BME280;37112;45.892;-123.962;2023-02-18T08:15:49;102359.45;;;4.76;91.46
51067;BME280;37112;45.892;-123.962;2023-02-18T08:18:03;102356.64;;;4.76;91.68
51067;BME280;37112;45.892;-123.962;2023-02-18T08:20:16;102348.52;;;4.77;91.75
51067;BME280;37112;45.892;-123.962;2023-02-18T08:22:31;102341.30;;;4.77;91.95
51067;BME280;37112;45.892;-123.962;2023-02-18T08:24:45;102342.35;;;4.78;91.97
51067;BME280;37112;45.892;-123.962;2023-02-18T08:26:58;102340.04;;;4.79;92.08
51067;BME280;37112;45.892;-123.962;2023-02-18T08:29:13;102333.52;;;4.79;92.11
51067;BME280;37112;45.892;-123.962;2023-02-18T08:31:27;102325.94;;;4.80;92.18
51067;BME280;37112;45.892;-123.962;2023-02-18T08:33:40;102315.36;;;4.81;92.33
51067;BME280;37112;45.892;-123.962;2023-02-18T08:35:54;102308.13;;;4.82;92.34
51067;BME280;37112;45.892;-123.962;2023-02-18T08:38:08;102303.19;;;4.83;92.35
51067;BME280;37112;45.892;-123.962;2023-02-18T08:40:22;102303.16;;;4.84;92.55
51067;BME280;37112;45.892;-123.962;2023-02-18T08:42:35;102296.61;;;4.86;92.56
51067;BME280;37112;45.892;-123.962;2023-02-18T08:44:48;102296.59;;;4.87;92.53
51067;BME280;37112;45.892;-123.962;2023-02-18T08:47:01;102294.64;;;4.87;92.42
51067;BME280;37112;45.892;-123.962;2023-02-18T08:49:35;102286.52;;;4.88;92.57
51067;BME280;37112;45.892;-123.962;2023-02-18T08:51:48;102274.70;;;4.90;92.67
51067;BME280;37112;45.892;-123.962;2023-02-18T08:54:02;102265.54;;;4.91;92.63
51067;BME280;37112;45.892;-123.962;2023-02-18T08:56:16;102261.63;;;4.93;92.72
51067;BME280;37112;45.892;-123.962;2023-02-18T08:58:29;102257.20;;;4.94;92.77
51067;BME280;37112;45.892;-123.962;2023-02-18T09:00:43;102257.33;;;4.96;92.60
51067;BME280;37112;45.892;-123.962;2023-02-18T09:02:57;102247.46;;;4.97;92.51
51067;BME280;37112;45.892;-123.962;2023-02-18T09:05:11;102239.36;;;4.97;92.59
51067;BME280;37112;45.892;-123.962;2023-02-18T09:07:24;102243.58;;;4.98;92.55
51067;BME280;37112;45.892;-123.962;2023-02-18T09:09:37;102244.64;;;4.97;92.32
51067;BME280;37112;45.892;-123.962;2023-02-18T09:11:52;102244.82;;;4.96;92.20
51067;BME280;37112;45.892;-123.962;2023-02-18T09:14:05;102246.94;;;4.96;92.29
51067;BME280;37112;45.892;-123.962;2023-02-18T09:16:20;102249.92;;;4.97;92.32
51067;BME280;37112;45.892;-123.962;2023-02-18T09:18:34;102242.52;;;4.98;92.28
51067;BME280;37112;45.892;-123.962;2023-02-18T09:20:53;102238.80;;;4.99;92.46
51067;BME280;37112;45.892;-123.962;2023-02-18T09:23:08;102232.79;;;5.01;92.44
51067;BME280;37112;45.892;-123.962;2023-02-18T09:25:21;102239.12;;;5.01;92.31
51067;BME280;37112;45.892;-123.962;2023-02-18T09:27:34;102248.45;;;5.01;92.14
51067;BME280;37112;45.892;-123.962;2023-02-18T09:29:47;102255.86;;;5.00;92.20
51067;BME280;37112;45.892;-123.962;2023-02-18T09:32:04;102257.83;;;4.99;92.10
51067;BME280;37112;45.892;-123.962;2023-02-18T09:34:17;102264.86;;;4.99;92.14
51067;BME280;37112;45.892;-123.962;2023-02-18T09:36:31;102265.92;;;4.99;92.33
51067;BME280;37112;45.892;-123.962;2023-02-18T09:38:44;102271.20;;;4.99;92.26
51067;BME280;37112;45.892;-123.962;2023-02-18T09:40:59;102274.17;;;5.00;92.24
51067;BME280;37112;45.892;-123.962;2023-02-18T09:43:21;102268.52;;;5.01;92.40
51067;BME280;37112;45.892;-123.962;2023-02-18T09:45:36;102258.80;;;5.02;92.46
51067;BME280;37112;45.892;-123.962;2023-02-18T09:47:51;102268.33;;;5.02;92.51
51067;BME280;37112;45.892;-123.962;2023-02-18T09:50:12;102277.80;;;5.02;92.44
51067;BME280;37112;45.892;-123.962;2023-02-18T09:52:27;102281.81;;;5.05;92.60
51067;BME280;37112;45.892;-123.962;2023-02-18T09:54:41;102265.42;;;5.06;92.57
51067;BME280;37112;45.892;-123.962;2023-02-18T09:56:55;102254.84;;;5.08;92.49
51067;BME280;37112;45.892;-123.962;2023-02-18T09:59:12;102245.86;;;5.07;92.44
51067;BME280;37112;45.892;-123.962;2023-02-18T10:01:31;102239.70;;;5.07;92.32
51067;BME280;37112;45.892;-123.962;2023-02-18T10:03:46;102233.55;;;5.05;92.18
51067;BME280;37112;45.892;-123.962;2023-02-18T10:06:02;102236.92;;;5.04;92.12
51067;BME280;37112;45.892;-123.962;2023-02-18T10:08:22;102228.14;;;5.03;92.25
51067;BME280;37112;45.892;-123.962;2023-02-18T10:10:41;102215.47;;;5.03;92.26
51067;BME280;37112;45.892;-123.962;2023-02-18T10:12:56;102213.19;;;5.03;92.44
51067;BME280;37112;45.892;-123.962;2023-02-18T10:15:19;102212.65;;;5.03;92.37
51067;BME280;37112;45.892;-123.962;2023-02-18T10:17:34;102211.04;;;5.04;92.35
51067;BME280;37112;45.892;-123.962;2023-02-18T10:19:50;102209.61;;;5.06;92.59
51067;BME280;37112;45.892;-123.962;2023-02-18T10:22:06;102212.96;;;5.07;92.52
51067;BME280;37112;45.892;-123.962;2023-02-18T10:24:30;102219.30;;;5.06;92.33
51067;BME280;37112;45.892;-123.962;2023-02-18T10:26:44;102237.42;;;5.06;92.52
51067;BME280;37112;45.892;-123.962;2023-02-18T10:28:58;102261.72;;;5.05;92.42
51067;BME280;37112;45.892;-123.962;2023-02-18T10:31:13;102271.95;;;5.04;92.52
51067;BME280;37112;45.892;-123.962;2023-02-18T10:33:41;102262.43;;;5.05;92.47
51067;BME280;37112;45.892;-123.962;2023-02-18T10:35:59;102257.50;;;5.07;92.67
51067;BME280;37112;45.892;-123.962;2023-02-18T10:38:19;102266.81;;;5.08;92.66
51067;BME280;37112;45.892;-123.962;2023-02-18T10:40:44;102269.44;;;5.08;92.52
51067;BME280;37112;45.892;-123.962;2023-02-18T10:43:09;102256.73;;;5.09;92.68
51067;BME280;37112;45.892;-123.962;2023-02-18T10:45:31;102241.19;;;5.11;92.84
51067;BME280;37112;45.892;-123.962;2023-02-18T10:47:57;102239.77;;;5.12;92.71
51067;BME280;37112;45.892;-123.962;2023-02-18T10:50:27;102234.99;;;5.13;92.68
51067;BME280;37112;45.892;-123.962;2023-02-18T10:52:43;102234.46;;;5.13;92.73
51067;BME280;37112;45.892;-123.962;2023-02-18T10:55:01;102243.79;;;5.13;92.78
51067;BME280;37112;45.892;-123.962;2023-02-18T10:57:20;102250.30;;;5.14;92.80
51067;BME280;37112;45.892;-123.962;2023-02-18T10:59:35;102246.42;;;5.13;92.75
51067;BME280;37112;45.892;-123.962;2023-02-18T11:01:56;102241.33;;;5.14;92.84
51067;BME280;37112;45.892;-123.962;2023-02-18T11:04:15;102239.02;;;5.15;92.97
51067;BME280;37112;45.892;-123.962;2023-02-18T11:06:32;102242.88;;;5.16;92.89
51067;BME280;37112;45.892;-123.962;2023-02-18T11:08:50;102237.02;;;5.17;92.98
51067;BME280;37112;45.892;-123.962;2023-02-18T11:11:11;102224.71;;;5.17;93.09
51067;BME280;37112;45.892;-123.962;2023-02-18T11:13:34;102211.33;;;5.17;93.16
51067;BME280;37112;45.892;-123.962;2023-02-18T11:16:04;102205.33;;;5.17;93.24
51067;BME280;37112;45.892;-123.962;2023-02-18T11:18:31;102205.65;;;5.18;93.23
51067;BME280;37112;45.892;-123.962;2023-02-18T11:20:56;102190.11;;;5.20;93.39
51067;BME280;37112;45.892;-123.962;2023-02-18T11:23:20;102178.13;;;5.21;93.39
51067;BME280;37112;45.892;-123.962;2023-02-18T11:25:36;102178.30;;;5.22;93.08
51067;BME280;37112;45.892;-123.962;2023-02-18T11:27:53;102189.58;;;5.21;93.08
51067;BME280;37112;45.892;-123.962;2023-02-18T11:30:16;102201.92;;;5.19;92.98
51067;BME280;37112;45.892;-123.962;2023-02-18T11:32:33;102204.58;;;5.19;92.94
51067;BME280;37112;45.892;-123.962;2023-02-18T11:34:47;102193.98;;;5.20;93.10
51067;BME280;37112;45.892;-123.962;2023-02-18T11:37:11;102187.65;;;5.20;93.03
51067;BME280;37112;45.892;-123.962;2023-02-18T11:39:29;102183.21;;;5.22;93.23
51067;BME280;37112;45.892;-123.962;2023-02-18T11:41:45;102178.42;;;5.24;93.24
51067;BME280;37112;45.892;-123.962;2023-02-18T11:43:59;102176.63;;;5.25;93.14
51067;BME280;37112;45.892;-123.962;2023-02-18T11:46:15;102181.19;;;5.25;93.34